Terminal Aerodrome Forecast
Issued by NWS Grand Forks, ND

Home | Current Version | Previous Version | Text Only | Print | Product List | Glossary Off
Versions: 1 2 3 4 5 6 7 8 9 10 11 12 13 14 15 16 17 18 19 20

000
FTUS43 KFGF 310211 AAA
TAFGFK
TAF AMD
KGFK 310211Z 3102/3124 17013KT P6SM BKN250
     FM311500 20012KT P6SM VCSH BKN120
     FM312100 27013KT P6SM SCT250=

USA.gov is the U.S. government's official web portal to all federal, state and local government web resources and services.